Time;durP1;ratioP1;P1;durP2;ratioP2;P2;SDS_P1;SDS_P2;PMS_P1;PMS_P2;Temp;Humidity;BMP_temperature;BMP_pressure;BME280_temperature;BME280_humidity;BME280_pressure;Samples;Min_cycle;Max_cycle;Signal;HPM_P1;HPM_P2
2023/06/30 00:00:55;;;;;;;5.90;3.70;;;15.70;99.90;;;;;;5041754;28;20045;-77
2023/06/30 00:03:24;;;;;;;6.50;3.70;;;15.80;99.90;;;;;;5062399;28;20041;-77
2023/06/30 00:05:50;;;;;;;11.30;4.20;;;15.80;99.90;;;;;;5019031;28;20036;-74
2023/06/30 00:08:15;;;;;;;6.75;3.95;;;15.70;99.90;;;;;;5009478;28;20891;-75
2023/06/30 00:10:42;;;;;;;8.15;3.55;;;15.70;99.90;;;;;;5038067;28;20094;-75
2023/06/30 00:13:08;;;;;;;9.20;4.10;;;15.80;99.90;;;;;;5019346;28;20611;-78
2023/06/30 00:15:33;;;;;;;10.63;3.70;;;15.60;99.90;;;;;;5038525;28;20041;-77
2023/06/30 00:17:59;;;;;;;9.80;4.40;;;15.70;99.90;;;;;;5051931;28;20037;-73
2023/06/30 00:20:28;;;;;;;7.45;3.42;;;15.70;99.90;;;;;;5020090;28;20145;-76
2023/06/30 00:22:53;;;;;;;8.32;3.40;;;15.80;99.90;;;;;;5045218;28;20396;-74
2023/06/30 00:25:19;;;;;;;8.15;3.47;;;15.60;99.90;;;;;;5037600;28;20040;-75
2023/06/30 00:27:45;;;;;;;10.13;3.63;;;15.70;99.90;;;;;;5021009;28;20055;-78
2023/06/30 00:30:11;;;;;;;12.82;4.03;;;15.50;99.90;;;;;;5012111;28;20044;-78
2023/06/30 00:32:37;;;;;;;6.00;3.13;;;15.60;99.90;;;;;;5020531;28;20044;-75
2023/06/30 00:35:03;;;;;;;6.80;3.40;;;15.50;99.90;;;;;;5029649;28;20057;-72
2023/06/30 00:37:29;;;;;;;6.10;3.28;;;15.50;99.90;;;;;;5050100;28;20072;-75
2023/06/30 00:39:55;;;;;;;8.95;3.47;;;15.50;99.90;;;;;;5051890;28;20191;-72
2023/06/30 00:42:20;;;;;;;5.90;3.22;;;15.40;99.90;;;;;;5033035;28;20037;-76
2023/06/30 00:44:46;;;;;;;6.68;3.40;;;15.50;99.90;;;;;;5053919;28;20539;-78
2023/06/30 00:47:12;;;;;;;7.80;3.20;;;15.40;99.90;;;;;;5063347;28;20044;-74
2023/06/30 00:49:39;;;;;;;10.40;3.83;;;15.30;99.90;;;;;;5054160;28;20075;-78
2023/06/30 00:52:05;;;;;;;12.05;3.65;;;15.30;99.90;;;;;;5030576;28;20049;-76
2023/06/30 00:54:31;;;;;;;9.68;3.60;;;15.30;99.90;;;;;;5054863;28;20045;-75
2023/06/30 00:57:06;;;;;;;6.07;3.20;;;15.20;99.90;;;;;;5038396;28;20048;-75
2023/06/30 00:59:31;;;;;;;7.15;3.60;;;15.30;99.90;;;;;;5027926;28;20055;-75
2023/06/30 01:02:05;;;;;;;12.88;3.67;;;15.30;99.90;;;;;;5026823;28;20041;-78
2023/06/30 01:04:39;;;;;;;6.28;3.50;;;15.30;99.90;;;;;;5065630;28;20040;-76
2023/06/30 01:07:19;;;;;;;9.07;3.50;;;15.30;99.90;;;;;;5040032;28;20389;-78
2023/06/30 01:09:55;;;;;;;5.90;3.45;;;15.30;99.90;;;;;;5067257;28;20321;-77
2023/06/30 01:12:22;;;;;;;9.75;4.00;;;15.30;99.90;;;;;;5044229;28;20037;-74
2023/06/30 01:14:51;;;;;;;7.88;3.70;;;15.20;99.90;;;;;;5051512;28;20549;-78
2023/06/30 01:17:20;;;;;;;10.35;3.47;;;15.20;99.90;;;;;;5029117;28;20070;-76
2023/06/30 01:19:47;;;;;;;9.73;3.67;;;15.10;99.90;;;;;;5029391;28;20041;-74
2023/06/30 01:22:56;;;;;;;7.40;3.53;;;15.20;99.90;;;;;;5044474;28;20041;-78
2023/06/30 01:25:26;;;;;;;7.97;2.80;;;15.10;99.90;;;;;;4932545;29;20516;-75
2023/06/30 01:27:53;;;;;;;6.22;3.17;;;15.10;99.90;;;;;;4954298;28;20145;-79
2023/06/30 01:30:20;;;;;;;6.75;2.90;;;15.10;99.90;;;;;;4990352;28;20373;-72
2023/06/30 01:32:46;;;;;;;8.20;3.20;;;15.20;99.90;;;;;;5048603;28;21649;-74
2023/06/30 01:35:13;;;;;;;9.25;3.95;;;15.10;99.90;;;;;;5052362;28;20040;-74
2023/06/30 01:37:38;;;;;;;6.40;3.50;;;15.10;99.90;;;;;;5045910;28;20032;-73
2023/06/30 01:40:05;;;;;;;11.32;3.35;;;15.10;99.90;;;;;;5042094;28;20464;-73
2023/06/30 01:42:32;;;;;;;8.68;3.40;;;15.10;99.90;;;;;;5016575;28;20036;-75
2023/06/30 01:44:59;;;;;;;8.82;3.38;;;15.10;99.90;;;;;;5055574;28;20924;-76
2023/06/30 01:47:25;;;;;;;7.57;3.35;;;15.10;99.90;;;;;;5036776;28;20048;-75
2023/06/30 01:49:51;;;;;;;7.40;3.22;;;15.00;99.90;;;;;;5057492;28;20028;-73
2023/06/30 01:52:18;;;;;;;7.05;3.00;;;15.00;99.90;;;;;;5020964;28;20041;-74
2023/06/30 01:54:43;;;;;;;8.65;3.80;;;14.90;99.90;;;;;;5061335;28;20745;-76
2023/06/30 01:57:11;;;;;;;6.97;3.50;;;14.90;99.90;;;;;;5030711;28;20120;-74
2023/06/30 01:59:36;;;;;;;12.40;3.03;;;14.90;99.90;;;;;;5056733;28;20483;-74
2023/06/30 02:02:02;;;;;;;8.93;3.40;;;15.00;99.90;;;;;;5033654;28;20041;-77
2023/06/30 02:04:28;;;;;;;6.57;2.90;;;15.00;99.90;;;;;;5052403;28;20123;-74
2023/06/30 02:06:55;;;;;;;7.97;3.05;;;14.90;99.90;;;;;;5055433;28;20396;-77
2023/06/30 02:09:20;;;;;;;10.15;3.13;;;15.00;99.90;;;;;;5064682;28;20132;-79
2023/06/30 02:11:46;;;;;;;8.07;3.38;;;14.90;99.90;;;;;;5048504;28;20040;-72
2023/06/30 02:14:12;;;;;;;6.72;3.50;;;14.80;99.90;;;;;;5030256;28;20029;-76
2023/06/30 02:16:37;;;;;;;6.90;3.40;;;14.80;99.90;;;;;;5035243;28;20477;-76
2023/06/30 02:19:03;;;;;;;9.52;3.50;;;14.90;99.90;;;;;;5033066;28;20087;-78
2023/06/30 02:21:29;;;;;;;5.45;2.80;;;14.80;99.90;;;;;;5052838;28;20123;-76
2023/06/30 02:23:55;;;;;;;8.00;3.35;;;14.70;99.90;;;;;;5022709;28;20515;-76
2023/06/30 02:26:20;;;;;;;6.88;3.20;;;14.70;99.90;;;;;;5032268;28;20094;-75
2023/06/30 02:28:46;;;;;;;7.72;3.17;;;14.70;99.90;;;;;;5038439;28;20071;-75
2023/06/30 02:31:12;;;;;;;7.93;3.80;;;14.80;99.90;;;;;;5030885;28;20064;-76
2023/06/30 02:33:38;;;;;;;11.20;3.65;;;14.60;99.90;;;;;;5046699;28;20128;-73
2023/06/30 02:36:04;;;;;;;10.85;3.55;;;14.60;99.90;;;;;;5017885;28;20037;-77
2023/06/30 02:38:31;;;;;;;6.88;3.33;;;14.60;99.90;;;;;;5051167;28;20427;-76
2023/06/30 02:40:57;;;;;;;11.18;3.53;;;14.60;99.90;;;;;;5045579;28;20072;-75
2023/06/30 02:43:22;;;;;;;6.78;3.67;;;14.60;99.90;;;;;;5016752;28;20609;-78
2023/06/30 02:45:48;;;;;;;9.95;3.55;;;14.60;99.90;;;;;;5025382;28;20043;-75
2023/06/30 02:48:14;;;;;;;6.32;3.33;;;14.60;99.90;;;;;;5070421;28;20083;-79
2023/06/30 02:50:39;;;;;;;9.35;3.47;;;14.50;99.90;;;;;;5045597;28;20045;-76
2023/06/30 02:53:06;;;;;;;9.40;3.72;;;14.50;99.90;;;;;;5017415;28;20543;-79
2023/06/30 02:55:32;;;;;;;6.55;3.35;;;14.40;99.90;;;;;;5046430;28;20127;-78
2023/06/30 02:57:58;;;;;;;8.55;3.25;;;14.50;99.90;;;;;;5033716;28;20508;-76
2023/06/30 03:00:24;;;;;;;9.75;3.80;;;14.40;99.90;;;;;;5067303;28;20032;-79
2023/06/30 03:02:50;;;;;;;7.70;3.20;;;14.40;99.90;;;;;;5056656;28;20036;-78
2023/06/30 03:05:16;;;;;;;4.60;2.97;;;14.30;99.90;;;;;;5050600;28;22160;-72
2023/06/30 03:07:41;;;;;;;8.00;3.30;;;14.40;99.90;;;;;;5051242;28;20043;-73
2023/06/30 03:10:08;;;;;;;4.03;2.90;;;14.40;99.90;;;;;;5067972;28;20068;-74
2023/06/30 03:12:33;;;;;;;7.22;3.53;;;14.40;99.90;;;;;;5051886;28;20439;-75
2023/06/30 03:14:59;;;;;;;6.85;3.30;;;14.40;99.90;;;;;;5042613;28;20064;-81
2023/06/30 03:17:24;;;;;;;4.65;3.22;;;14.40;99.90;;;;;;5032677;28;20680;-72
2023/06/30 03:19:50;;;;;;;9.10;3.30;;;14.40;99.90;;;;;;5029944;28;20401;-73
2023/06/30 03:22:16;;;;;;;7.63;3.20;;;14.30;99.90;;;;;;5041527;28;20041;-74
2023/06/30 03:24:42;;;;;;;9.25;3.97;;;14.30;99.90;;;;;;5012593;28;20036;-73
2023/06/30 03:27:07;;;;;;;8.43;3.25;;;14.20;99.90;;;;;;5030379;28;20562;-76
2023/06/30 03:29:33;;;;;;;10.95;3.38;;;14.30;99.90;;;;;;5049335;28;20064;-78
2023/06/30 03:31:58;;;;;;;7.25;3.65;;;14.30;99.90;;;;;;5030567;28;20052;-75
2023/06/30 03:34:24;;;;;;;10.50;4.13;;;14.20;99.90;;;;;;5045964;28;20532;-76
2023/06/30 03:36:50;;;;;;;6.60;3.28;;;14.30;99.90;;;;;;5029656;28;20080;-77
2023/06/30 03:39:16;;;;;;;12.13;3.88;;;14.20;99.90;;;;;;5016430;28;20726;-76
2023/06/30 03:41:41;;;;;;;8.13;3.60;;;14.20;99.90;;;;;;5016228;28;20044;-76
2023/06/30 03:44:07;;;;;;;7.57;3.25;;;14.20;99.90;;;;;;5032882;28;20393;-75
2023/06/30 03:46:34;;;;;;;6.78;3.40;;;14.10;99.90;;;;;;5025544;28;20554;-79
2023/06/30 03:48:59;;;;;;;6.10;3.70;;;14.20;99.90;;;;;;5022352;28;20067;-78
2023/06/30 03:51:25;;;;;;;6.15;3.42;;;14.20;99.90;;;;;;5041973;28;20381;-74
2023/06/30 03:53:51;;;;;;;6.82;3.63;;;14.20;99.90;;;;;;5044034;28;20044;-78
2023/06/30 03:56:16;;;;;;;6.30;3.30;;;14.20;99.90;;;;;;5045308;28;20044;-75
2023/06/30 03:58:42;;;;;;;7.60;3.58;;;14.10;99.90;;;;;;5053015;28;20048;-80
2023/06/30 04:01:09;;;;;;;9.30;3.67;;;14.30;99.90;;;;;;5032829;28;20032;-75
2023/06/30 04:03:34;;;;;;;6.20;3.55;;;14.10;99.90;;;;;;5068446;28;20056;-77
2023/06/30 04:06:00;;;;;;;9.13;4.40;;;14.30;99.90;;;;;;5044557;28;20053;-78
2023/06/30 04:08:26;;;;;;;7.25;3.67;;;14.20;99.90;;;;;;5024593;28;20034;-80
2023/06/30 04:10:52;;;;;;;7.82;3.88;;;14.30;99.90;;;;;;5022565;28;20397;-76
2023/06/30 04:13:17;;;;;;;7.68;4.20;;;14.10;99.90;;;;;;5067086;28;20083;-76
2023/06/30 04:15:43;;;;;;;9.75;4.22;;;14.20;99.90;;;;;;5053683;28;20037;-76
2023/06/30 04:18:09;;;;;;;6.88;3.78;;;14.10;99.90;;;;;;5002719;28;20657;-75
2023/06/30 04:20:34;;;;;;;11.27;4.53;;;14.20;99.90;;;;;;5047137;28;20460;-76
2023/06/30 04:23:00;;;;;;;10.68;5.25;;;14.20;99.90;;;;;;5047304;28;20040;-77
2023/06/30 04:25:25;;;;;;;9.60;4.80;;;14.20;99.90;;;;;;5033514;28;20044;-75
2023/06/30 04:27:51;;;;;;;9.18;4.82;;;14.20;99.90;;;;;;5041865;28;20049;-74
2023/06/30 04:30:17;;;;;;;7.90;5.15;;;14.10;99.90;;;;;;5024998;28;20053;-76
2023/06/30 04:32:43;;;;;;;8.15;5.13;;;14.20;99.90;;;;;;5065916;28;20040;-76
2023/06/30 04:35:08;;;;;;;14.02;5.47;;;14.10;99.90;;;;;;5033109;28;20106;-74
2023/06/30 04:37:40;;;;;;;6.35;4.75;;;14.30;99.90;;;;;;5035033;28;20064;-77
2023/06/30 04:40:09;;;;;;;9.73;5.45;;;14.20;99.90;;;;;;5067076;28;20072;-78
2023/06/30 04:42:36;;;;;;;9.30;4.95;;;14.30;99.90;;;;;;5034982;28;20454;-74
2023/06/30 04:45:02;;;;;;;10.90;5.03;;;14.40;99.90;;;;;;5022167;28;20029;-76
2023/06/30 04:47:28;;;;;;;11.40;5.60;;;14.50;99.90;;;;;;5038632;28;20044;-80
2023/06/30 04:49:54;;;;;;;10.18;5.00;;;14.40;99.90;;;;;;5016410;28;20033;-76
2023/06/30 04:52:20;;;;;;;8.52;4.60;;;14.40;99.90;;;;;;5052233;28;20041;-74
2023/06/30 04:54:46;;;;;;;7.38;5.20;;;14.50;99.90;;;;;;5032741;28;20045;-76
2023/06/30 04:57:12;;;;;;;10.85;5.07;;;14.50;99.90;;;;;;5047378;28;20432;-81
2023/06/30 04:59:38;;;;;;;7.53;4.50;;;14.60;99.90;;;;;;5041813;28;20041;-77
2023/06/30 05:02:04;;;;;;;6.38;4.75;;;14.70;99.90;;;;;;5031079;28;20037;-76
2023/06/30 05:04:30;;;;;;;10.30;4.50;;;14.80;99.90;;;;;;5049787;28;20057;-78
2023/06/30 05:06:56;;;;;;;10.40;4.15;;;14.90;99.90;;;;;;5065789;28;20040;-74
2023/06/30 05:09:25;;;;;;;13.35;4.78;;;14.90;99.90;;;;;;5061321;28;20068;-74
2023/06/30 05:11:51;;;;;;;8.40;3.65;;;15.10;99.90;;;;;;5047830;28;20036;-78
2023/06/30 05:14:16;;;;;;;9.32;3.85;;;15.00;99.90;;;;;;5051385;28;20561;-77
2023/06/30 05:16:42;;;;;;;12.15;4.10;;;15.10;99.90;;;;;;5045015;28;20071;-74
2023/06/30 05:19:08;;;;;;;5.68;3.65;;;15.30;99.90;;;;;;5048196;28;20040;-76
2023/06/30 05:21:34;;;;;;;16.38;4.07;;;15.40;99.90;;;;;;5021089;28;20890;-78
2023/06/30 05:23:59;;;;;;;8.00;3.67;;;15.40;99.90;;;;;;5034027;28;20094;-77
2023/06/30 05:26:25;;;;;;;8.18;3.95;;;15.50;99.90;;;;;;5029365;28;20039;-76
2023/06/30 05:28:51;;;;;;;8.52;3.65;;;15.60;99.90;;;;;;5030216;28;20175;-76
2023/06/30 05:31:16;;;;;;;7.90;3.40;;;15.70;99.90;;;;;;5029195;28;20953;-78
2023/06/30 05:33:42;;;;;;;6.95;3.55;;;15.80;99.90;;;;;;5045042;28;20052;-76
2023/06/30 05:36:08;;;;;;;5.28;3.38;;;15.90;99.90;;;;;;5033592;28;20404;-77
2023/06/30 05:38:33;;;;;;;9.63;3.30;;;15.90;99.90;;;;;;5051747;28;20051;-77
2023/06/30 05:40:59;;;;;;;8.13;3.50;;;16.10;99.90;;;;;;5045174;28;20056;-74
2023/06/30 05:43:25;;;;;;;6.68;3.25;;;16.00;99.90;;;;;;5044187;28;20048;-75
2023/06/30 05:45:51;;;;;;;4.22;3.10;;;16.20;99.90;;;;;;5030063;28;20098;-78
2023/06/30 05:48:16;;;;;;;11.55;3.22;;;16.20;99.90;;;;;;5030774;28;20413;-78
2023/06/30 05:50:42;;;;;;;8.68;3.03;;;16.40;99.90;;;;;;5050349;28;20029;-78
2023/06/30 05:53:08;;;;;;;5.85;3.33;;;16.50;99.90;;;;;;5032338;28;20036;-77
2023/06/30 05:55:34;;;;;;;6.70;2.80;;;16.50;99.90;;;;;;5043885;28;20049;-79
2023/06/30 05:58:00;;;;;;;3.45;2.65;;;16.60;99.90;;;;;;5059637;28;20106;-74
2023/06/30 06:00:25;;;;;;;4.85;2.67;;;16.50;99.90;;;;;;5051853;28;20595;-72
2023/06/30 06:02:51;;;;;;;6.00;3.10;;;16.80;99.90;;;;;;5030823;28;20037;-76
2023/06/30 06:05:17;;;;;;;8.20;2.50;;;16.80;99.90;;;;;;5035490;28;20045;-74
2023/06/30 06:07:43;;;;;;;4.28;2.67;;;17.00;99.90;;;;;;5029458;28;20041;-76
2023/06/30 06:10:09;;;;;;;6.32;2.72;;;17.00;99.90;;;;;;5053749;28;20128;-75
2023/06/30 06:12:35;;;;;;;4.70;2.80;;;17.10;99.90;;;;;;5044540;28;20167;-74
2023/06/30 06:15:00;;;;;;;4.38;2.50;;;17.10;99.90;;;;;;5040380;28;20033;-76
2023/06/30 06:17:26;;;;;;;9.73;2.95;;;17.40;99.90;;;;;;5046577;28;20051;-74
2023/06/30 06:19:52;;;;;;;9.73;3.35;;;17.50;99.90;;;;;;5045665;28;20040;-76
2023/06/30 06:22:18;;;;;;;4.75;2.40;;;17.90;99.90;;;;;;5054006;28;20055;-74
2023/06/30 06:24:44;;;;;;;5.55;2.58;;;18.00;99.90;;;;;;5047689;28;20047;-77
2023/06/30 06:27:09;;;;;;;6.97;2.40;;;18.10;99.90;;;;;;5032004;28;20055;-73
2023/06/30 06:29:35;;;;;;;5.05;2.40;;;18.20;99.90;;;;;;5016796;28;20087;-74
2023/06/30 06:32:01;;;;;;;5.45;2.40;;;18.30;99.90;;;;;;5051329;28;20047;-77
2023/06/30 06:34:26;;;;;;;7.93;2.33;;;18.20;99.90;;;;;;5001902;28;20827;-74
2023/06/30 06:36:52;;;;;;;7.38;2.38;;;18.40;99.90;;;;;;5047352;28;20040;-75
2023/06/30 06:39:18;;;;;;;6.28;2.45;;;18.20;99.90;;;;;;5036763;28;20040;-73
2023/06/30 06:41:44;;;;;;;5.03;2.20;;;18.40;99.90;;;;;;5045290;28;20044;-76
2023/06/30 06:44:10;;;;;;;6.13;2.00;;;18.60;99.90;;;;;;5050949;28;20048;-76
2023/06/30 06:46:36;;;;;;;5.55;2.22;;;18.90;99.90;;;;;;5031676;28;20037;-78
2023/06/30 06:49:02;;;;;;;8.40;2.40;;;18.60;99.90;;;;;;5034662;28;20032;-77
2023/06/30 06:51:27;;;;;;;6.13;2.13;;;19.10;99.90;;;;;;5068547;28;20044;-76
2023/06/30 06:53:53;;;;;;;5.18;2.28;;;19.30;99.90;;;;;;5042487;28;20510;-76
2023/06/30 06:56:19;;;;;;;5.93;2.20;;;19.20;99.90;;;;;;5069088;28;20143;-73
2023/06/30 06:58:45;;;;;;;3.55;2.10;;;19.30;99.90;;;;;;5042464;28;20044;-75
2023/06/30 07:01:11;;;;;;;6.47;2.38;;;19.30;99.90;;;;;;5058759;28;20094;-76
2023/06/30 07:03:38;;;;;;;6.25;2.33;;;19.50;99.90;;;;;;5066617;28;20032;-78
2023/06/30 07:06:03;;;;;;;4.90;1.70;;;19.40;99.90;;;;;;5070598;28;20041;-75
2023/06/30 07:08:34;;;;;;;3.75;1.70;;;19.40;99.90;;;;;;5055334;28;20045;-75
2023/06/30 07:11:03;;;;;;;4.10;1.83;;;19.40;99.90;;;;;;5030747;28;20068;-78
2023/06/30 07:13:29;;;;;;;4.15;1.50;;;19.40;99.90;;;;;;5050215;28;20485;-75
2023/06/30 07:15:55;;;;;;;8.18;1.88;;;19.10;99.90;;;;;;5033512;28;20048;-75
2023/06/30 07:18:21;;;;;;;2.92;1.65;;;19.10;99.90;;;;;;5031461;28;20048;-75
2023/06/30 07:20:48;;;;;;;5.45;2.65;;;19.20;99.90;;;;;;5050358;28;20408;-75
2023/06/30 07:23:13;;;;;;;4.20;1.60;;;19.10;99.90;;;;;;5029044;28;20076;-76
2023/06/30 07:25:39;;;;;;;5.93;1.92;;;19.20;99.90;;;;;;5016417;28;20068;-80
2023/06/30 07:28:05;;;;;;;4.38;1.80;;;19.30;99.90;;;;;;5031552;28;20045;-76
2023/06/30 07:30:31;;;;;;;3.25;1.63;;;19.20;99.90;;;;;;5052391;28;20055;-75
2023/06/30 07:32:57;;;;;;;3.92;1.70;;;19.00;99.90;;;;;;5057916;28;20280;-76
2023/06/30 07:35:23;;;;;;;4.13;1.80;;;19.20;99.90;;;;;;5048142;28;20420;-74
2023/06/30 07:37:50;;;;;;;3.75;1.60;;;19.50;99.90;;;;;;5047338;28;20388;-77
2023/06/30 07:40:17;;;;;;;2.75;1.40;;;19.70;99.90;;;;;;5032425;28;20123;-72
2023/06/30 07:42:43;;;;;;;3.63;1.33;;;19.50;99.90;;;;;;5032365;28;20499;-74
2023/06/30 07:45:11;;;;;;;3.97;1.48;;;19.30;99.90;;;;;;4999309;28;20032;-79
2023/06/30 07:47:37;;;;;;;3.85;1.33;;;19.70;99.90;;;;;;5053443;28;20094;-74
2023/06/30 07:50:12;;;;;;;3.63;1.30;;;19.60;99.90;;;;;;5054911;28;20041;-77
2023/06/30 07:52:42;;;;;;;;;;;19.60;99.90;;;;;;5049264;28;20091;-79
2023/06/30 07:55:09;;;;;;;3.40;1.25;;;19.70;99.90;;;;;;5031676;28;19921;-75
2023/06/30 07:57:34;;;;;;;4.63;1.30;;;20.10;99.90;;;;;;5045860;28;20037;-77
2023/06/30 08:00:00;;;;;;;6.28;1.50;;;20.20;99.90;;;;;;5031864;28;20673;-78
2023/06/30 08:02:26;;;;;;;4.75;1.35;;;19.80;99.90;;;;;;5046899;28;20056;-78
2023/06/30 08:04:52;;;;;;;4.47;1.30;;;19.80;99.90;;;;;;5042305;28;20032;-73
2023/06/30 08:07:17;;;;;;;5.50;1.63;;;20.00;99.90;;;;;;5052224;28;20576;-79
2023/06/30 08:09:43;;;;;;;6.28;1.70;;;20.00;99.90;;;;;;5048127;28;20128;-76
2023/06/30 08:12:09;;;;;;;4.13;1.20;;;19.70;99.90;;;;;;5048837;28;20136;-76
2023/06/30 08:14:35;;;;;;;4.95;1.48;;;20.10;99.90;;;;;;5032399;28;20040;-80
2023/06/30 08:17:05;;;;;;;5.97;1.70;;;20.40;99.90;;;;;;5047776;28;20076;-73
2023/06/30 08:19:30;;;;;;;2.75;1.38;;;20.70;99.90;;;;;;5048781;28;20130;-76
2023/06/30 08:21:56;;;;;;;4.40;1.48;;;20.80;99.90;;;;;;5023960;28;20041;-77
2023/06/30 08:24:22;;;;;;;2.38;0.95;;;20.30;99.90;;;;;;5015624;28;20478;-76
2023/06/30 08:26:48;;;;;;;3.92;1.35;;;20.10;99.90;;;;;;5045163;28;20674;-77
2023/06/30 08:29:13;;;;;;;2.33;1.45;;;19.80;99.90;;;;;;5031968;28;20091;-78
2023/06/30 08:31:40;;;;;;;3.33;1.30;;;19.50;99.90;;;;;;5013680;28;20037;-76
2023/06/30 08:34:08;;;;;;;3.15;1.55;;;19.40;99.90;;;;;;5030430;28;20037;-74
2023/06/30 08:36:34;;;;;;;5.03;1.42;;;19.40;99.90;;;;;;5011919;28;20429;-75
2023/06/30 08:38:59;;;;;;;3.17;1.50;;;19.60;99.90;;;;;;5045838;28;20049;-79
2023/06/30 08:41:25;;;;;;;5.72;1.60;;;19.80;99.90;;;;;;5030036;28;20044;-76
2023/06/30 08:43:53;;;;;;;5.35;2.08;;;20.40;99.90;;;;;;5045728;28;20417;-80
2023/06/30 08:46:22;;;;;;;2.97;1.30;;;20.60;99.90;;;;;;5030649;28;20061;-75
2023/06/30 08:48:49;;;;;;;4.38;1.38;;;20.40;99.90;;;;;;5045803;28;20037;-75
2023/06/30 08:51:16;;;;;;;6.63;1.42;;;20.00;99.90;;;;;;5030133;28;20123;-73
2023/06/30 08:53:42;;;;;;;3.58;1.27;;;20.00;99.90;;;;;;5030405;28;20501;-79
2023/06/30 08:56:08;;;;;;;3.22;1.25;;;20.40;99.90;;;;;;5055191;28;20083;-76
2023/06/30 08:58:34;;;;;;;2.75;1.30;;;20.80;99.90;;;;;;5053397;28;20045;-79
2023/06/30 09:01:00;;;;;;;3.13;1.55;;;21.10;99.90;;;;;;5046648;28;20576;-79
2023/06/30 09:03:27;;;;;;;5.75;1.70;;;21.60;99.90;;;;;;5046683;28;20045;-78
2023/06/30 09:05:55;;;;;;;2.90;1.48;;;21.60;99.90;;;;;;5046967;28;20053;-78
2023/06/30 09:08:28;;;;;;;4.93;1.25;;;21.80;99.90;;;;;;5046418;28;20049;-73
2023/06/30 09:10:55;;;;;;;2.42;1.30;;;21.10;99.90;;;;;;5046644;28;20131;-76
2023/06/30 09:13:23;;;;;;;2.78;1.20;;;21.00;99.90;;;;;;5028252;28;20052;-76
2023/06/30 09:15:50;;;;;;;3.80;1.20;;;21.10;99.90;;;;;;5029729;28;20405;-74
2023/06/30 09:18:16;;;;;;;2.22;1.25;;;21.00;99.90;;;;;;5028893;28;20430;-74
2023/06/30 09:20:42;;;;;;;4.45;1.65;;;20.50;99.90;;;;;;5028579;28;20059;-76
2023/06/30 09:23:08;;;;;;;2.45;1.40;;;20.20;99.90;;;;;;5014070;28;20055;-77
2023/06/30 09:25:35;;;;;;;5.47;2.00;;;20.00;99.90;;;;;;5047949;28;20507;-77
2023/06/30 09:28:09;;;;;;;2.95;1.33;;;19.80;99.90;;;;;;5030444;28;20136;-76
2023/06/30 09:30:42;;;;;;;2.08;1.20;;;19.60;99.90;;;;;;5037602;28;20069;-77
2023/06/30 09:33:08;;;;;;;2.75;1.33;;;20.20;99.90;;;;;;5056650;28;20045;-74
2023/06/30 09:35:42;;;;;;;2.00;1.30;;;21.10;99.90;;;;;;5030858;28;20048;-78
2023/06/30 09:38:18;;;;;;;1.65;1.27;;;21.70;99.90;;;;;;5047416;28;20845;-75
2023/06/30 09:40:49;;;;;;;2.60;1.00;;;22.50;99.90;;;;;;5043340;28;20076;-77
2023/06/30 09:43:17;;;;;;;3.17;1.30;;;22.50;99.90;;;;;;5047242;28;20045;-77
2023/06/30 09:45:44;;;;;;;1.90;1.10;;;22.60;99.90;;;;;;5030495;28;20048;-77
2023/06/30 09:48:13;;;;;;;2.40;1.25;;;22.90;99.90;;;;;;5045211;28;20427;-78
2023/06/30 09:50:41;;;;;;;2.25;1.20;;;21.90;99.90;;;;;;5052488;28;20037;-76
2023/06/30 09:53:08;;;;;;;3.25;1.20;;;21.60;99.90;;;;;;5047049;28;20052;-77
2023/06/30 09:55:48;;;;;;;3.65;1.35;;;22.20;99.90;;;;;;5030938;28;20044;-80
2023/06/30 09:58:18;;;;;;;4.60;1.20;;;22.70;99.90;;;;;;5051315;28;20053;-76
2023/06/30 10:00:45;;;;;;;3.40;1.38;;;22.10;99.90;;;;;;5048808;28;20047;-75
2023/06/30 10:03:11;;;;;;;2.67;1.23;;;22.20;99.90;;;;;;5032488;28;20047;-80
2023/06/30 10:05:38;;;;;;;1.85;1.05;;;22.40;99.90;;;;;;5063099;28;20118;-75
2023/06/30 10:08:03;;;;;;;2.60;1.05;;;23.00;99.90;;;;;;5050512;28;20043;-75
2023/06/30 10:10:30;;;;;;;1.23;1.13;;;23.80;99.90;;;;;;5033704;28;20119;-76
2023/06/30 10:12:58;;;;;;;2.08;1.10;;;24.10;99.90;;;;;;5050204;28;20493;-76
2023/06/30 10:15:25;;;;;;;2.58;1.00;;;24.10;99.90;;;;;;5018708;28;20489;-76
2023/06/30 10:17:52;;;;;;;2.92;1.23;;;25.00;99.90;;;;;;5033677;28;20044;-77
2023/06/30 10:20:18;;;;;;;1.58;1.05;;;24.80;99.90;;;;;;5050076;28;20052;-78
2023/06/30 10:22:44;;;;;;;1.80;0.98;;;23.60;99.90;;;;;;5039963;28;20029;-75
2023/06/30 10:25:11;;;;;;;1.65;1.05;;;23.10;99.90;;;;;;5046821;28;20413;-77
2023/06/30 10:27:38;;;;;;;1.67;1.00;;;22.50;99.90;;;;;;5049769;28;20060;-76
2023/06/30 10:30:04;;;;;;;2.40;1.00;;;23.00;95.60;;;;;;5034107;28;20401;-74
2023/06/30 10:32:30;;;;;;;3.30;1.52;;;23.40;73.70;;;;;;5050772;28;20072;-76
2023/06/30 10:34:57;;;;;;;2.65;1.20;;;23.90;93.10;;;;;;5033294;28;20072;-76
2023/06/30 10:37:24;;;;;;;1.65;1.10;;;23.10;81.70;;;;;;5050740;28;20127;-77
2023/06/30 10:39:50;;;;;;;3.08;1.30;;;22.90;92.90;;;;;;5046466;28;20072;-79
2023/06/30 10:42:16;;;;;;;5.43;1.50;;;23.60;83.60;;;;;;5016350;28;20449;-79
2023/06/30 10:44:49;;;;;;;4.53;1.13;;;23.40;86.60;;;;;;5051060;28;20045;-80
2023/06/30 10:47:22;;;;;;;1.45;1.10;;;23.00;59.90;;;;;;5032559;28;20098;-76
2023/06/30 10:49:53;;;;;;;3.22;1.25;;;22.30;50.60;;;;;;5050655;28;20044;-77
2023/06/30 10:52:29;;;;;;;4.05;1.20;;;22.40;67.30;;;;;;5034033;28;20041;-79
2023/06/30 10:54:55;;;;;;;2.30;1.15;;;23.10;33.60;;;;;;5033453;28;20105;-77
2023/06/30 10:57:24;;;;;;;2.10;1.10;;;23.20;13.20;;;;;;5032155;28;20045;-77
2023/06/30 11:00:04;;;;;;;1.92;1.02;;;23.70;9.70;;;;;;5051630;28;20040;-76
2023/06/30 11:02:31;;;;;;;2.00;1.30;;;24.10;1.00;;;;;;5070413;28;20502;-78
2023/06/30 11:05:21;;;;;;;2.67;1.13;;;24.10;1.00;;;;;;5070160;28;20108;-78
2023/06/30 11:07:48;;;;;;;2.00;1.10;;;24.10;1.00;;;;;;5052702;28;20033;-76
2023/06/30 11:10:34;;;;;;;1.55;1.05;;;25.30;1.00;;;;;;5049943;28;20041;-77
2023/06/30 11:13:02;;;;;;;4.70;1.83;;;25.90;1.00;;;;;;5049418;28;20106;-78
2023/06/30 11:15:40;;;;;;;2.42;1.20;;;25.80;1.00;;;;;;5033521;28;20078;-75
2023/06/30 11:18:13;;;;;;;4.07;1.42;;;26.40;1.00;;;;;;5053538;28;20055;-75
2023/06/30 11:20:57;;;;;;;2.05;1.40;;;24.50;1.00;;;;;;5049569;28;20052;-75
2023/06/30 11:23:22;;;;;;;2.53;1.30;;;24.60;1.00;;;;;;5035761;28;20045;-76
2023/06/30 11:25:48;;;;;;;2.70;1.33;;;25.30;1.00;;;;;;5032740;28;20036;-78
2023/06/30 11:28:14;;;;;;;4.15;1.60;;;26.10;1.00;;;;;;5014097;28;20140;-75
2023/06/30 11:30:41;;;;;;;2.28;1.10;;;26.10;1.00;;;;;;5033361;28;20045;-75
2023/06/30 11:33:07;;;;;;;4.43;1.30;;;26.00;1.00;;;;;;5046298;28;20049;-77
2023/06/30 11:35:34;;;;;;;3.65;1.23;;;25.50;1.00;;;;;;5069660;28;20133;-78
2023/06/30 11:38:00;;;;;;;2.28;1.30;;;25.60;1.00;;;;;;5060004;28;20041;-76
2023/06/30 11:40:27;;;;;;;2.33;1.20;;;26.30;1.00;;;;;;5032656;28;20481;-76
2023/06/30 11:42:53;;;;;;;1.77;1.30;;;25.90;1.00;;;;;;5032643;28;20448;-77
2023/06/30 11:45:20;;;;;;;5.57;1.40;;;25.00;1.00;;;;;;5049619;28;20063;-77
2023/06/30 11:47:54;;;;;;;4.20;1.40;;;25.70;1.00;;;;;;5032028;28;20075;-77
2023/06/30 11:50:20;;;;;;;2.05;1.30;;;25.40;99.90;;;;;;5048485;28;20068;-77
2023/06/30 11:52:49;;;;;;;3.22;1.45;;;26.10;99.90;;;;;;5015778;28;20052;-77
2023/06/30 11:55:16;;;;;;;3.63;1.38;;;25.60;1.00;;;;;;5049115;28;20098;-79
2023/06/30 11:57:49;;;;;;;2.10;1.40;;;25.90;1.00;;;;;;5032159;28;20037;-77
2023/06/30 12:00:22;;;;;;;3.90;1.30;;;26.40;1.00;;;;;;5062930;28;20047;-77
2023/06/30 12:02:49;;;;;;;1.95;1.38;;;25.60;1.00;;;;;;5049892;28;20311;-80
2023/06/30 12:05:23;;;;;;;2.80;1.50;;;25.70;1.00;;;;;;5048626;28;20059;-77
2023/06/30 12:07:51;;;;;;;5.25;1.80;;;25.50;99.90;;;;;;5041989;28;20053;-76
2023/06/30 12:10:18;;;;;;;3.95;1.20;;;25.90;99.90;;;;;;5045495;28;20049;-78
2023/06/30 12:12:52;;;;;;;2.28;1.20;;;26.10;99.90;;;;;;5048440;28;20043;-77
2023/06/30 12:15:17;;;;;;;5.30;1.50;;;26.50;99.90;;;;;;5033157;28;20118;-76
2023/06/30 12:17:43;;;;;;;4.03;1.40;;;26.20;99.90;;;;;;5032146;28;20589;-78
2023/06/30 12:20:11;;;;;;;3.55;1.50;;;26.50;99.90;;;;;;5045396;28;20062;-76
2023/06/30 12:22:41;;;;;;;1.73;1.30;;;25.40;99.90;;;;;;5046019;28;20683;-74
2023/06/30 12:25:11;;;;;;;2.50;1.58;;;25.70;99.90;;;;;;5061098;28;20052;-76
2023/06/30 12:27:41;;;;;;;5.07;1.80;;;26.30;99.90;;;;;;5067808;28;20061;-75
2023/06/30 12:30:17;;;;;;;2.70;1.48;;;26.60;99.90;;;;;;5056390;28;20037;-78
2023/06/30 12:32:44;;;;;;;2.00;1.40;;;26.10;99.90;;;;;;5031294;28;20135;-77
2023/06/30 12:35:10;;;;;;;4.22;1.50;;;26.10;99.90;;;;;;5047128;28;20041;-79
2023/06/30 12:37:36;;;;;;;4.53;1.40;;;25.70;99.90;;;;;;5030939;28;20072;-76
2023/06/30 12:40:05;;;;;;;5.60;1.80;;;25.30;99.90;;;;;;5027251;28;20044;-77
2023/06/30 12:42:32;;;;;;;5.13;1.40;;;25.10;1.00;;;;;;5045419;28;20045;-76
2023/06/30 12:44:57;;;;;;;6.35;1.60;;;25.10;99.90;;;;;;5030011;28;20045;-79
2023/06/30 12:47:23;;;;;;;4.30;1.27;;;25.60;99.90;;;;;;5030795;28;20040;-74